Go Pro

First Trust Senior Loan ETF (FTSL) Institutional Ownership

First Trust Senior Loan ETF logo
$44.89 0.00 (0.00%)
As of 03:57 PM Eastern

Institutional Ownership Changes (13F Filings) for First Trust Senior Loan ETF (NASDAQ:FTSL)

Number of
Institutional Buyers
(last 12 months)
207
Total
Institutional Inflows
(last 12 months)
$399.25M
Number of
Institutional Sellers
(last 12 months)
150
Total
Institutional Outflows
(last 12 months)
$228.03M
Get FTSL Insider Trade Alerts

Want to know when executives and insiders are buying or selling First Trust Senior Loan ETF stock? Sign up for InsiderTrades.com's daily newsletter to get the latest insider transactions delivered to your inbox daily.

SMS is currently available in Australia, Belgium, Canada, France, Germany, Ireland, Italy, New Zealand, the Netherlands, Singapore, South Africa, Spain, Switzerland, the United Kingdom, and the United States. By entering your phone number and clicking the sign-up button, you agree to receive periodic text messages from MarketBeat at the phone number you submitted, including texts that may be sent using an automatic telephone dialing system. Message and data rates may apply. Message frequency will vary. Messages will consist of stock alerts, news stories, and partner advertisements/offers. Consent is not a condition of the purchase of any goods or services. Text HELP for help/customer support. Unsubscribe at any time by replying "STOP" to any text message that you receive from MarketBeat or by visiting our mailing preferences page. Read our full terms of service and privacy policy.
Skip Chart & View Institutional Buying and Selling Data

FTSL Institutional Buying and Selling by Quarter

First Trust Senior Loan ETF Major Shareholders & Ownership History

Reporting DateMajor Shareholder NameShares HeldMarket Value% of PortfolioQuarterly Change in SharesOwnership in CompanyDetails
9/2/2026Kinetic Wealth Investment Advisors LLC5,555$249K0.1%N/A0.011%
8/27/2026 Tucker Asset Management LLC1,843$82K0.0%+1,925.3%0.004%
8/23/2026 Ameritas Advisory Services LLC23,311$1.04M0.0%+76.9%0.045%
8/23/2026 PCG Wealth Advisors LLC88,716$3.97M0.9%-0.6%0.171%
8/23/2026 Nilsine Partners LLC212,769$9.52M0.7%+3.0%0.411%
8/23/2026 Asset Allocation Strategies LLC28,410$1.27M0.2%-1.9%0.055%
8/22/2026 Compass Financial Management LLC27,086$1.21M0.1%N/A0.052%
8/22/2026 BAM Wealth Management LLC10,312$461K0.3%+46.8%0.020%
8/22/2026 Legacy Wealth Managment LLC ID24,990$1.12M0.5%-28.7%0.048%
8/22/2026 Concurrent Investment Advisors LLC593,455$26.56M0.2%+107.3%1.146%
8/21/2026 Integrity Financial Corp WA23,410$1.05M0.5%-24.3%0.045%
8/21/2026 Andina Capital Management LLC26,124$1.17M1.9%N/A0.050%
8/21/2026 Fairway Financial LLC136,173$6.09M4.2%+2.9%0.263%
8/21/2026 Continuum Advisory LLC616$28K0.0%N/A0.001%
8/21/2026 Murphy Middleton Hinkle & Parker Inc.34,707$1.55M0.6%-3.1%0.067%
8/20/2026 RPg Family Wealth Advisory LLC164,965$7.38M1.2%+1.9%0.318%
8/12/2026 Compass Financial Management LLC27,086$1.21M0.1%N/A0.052%
7/10/2026 Investors Research Corp28,618$1.28M0.2%-2.5%0.055%
7/10/2026 Accel Wealth Management16,678$746K0.2%-10.4%0.032%
7/9/2026 Key Client Fiduciary Advisors LLC45,125$2.02M0.6%-21.8%0.087%
7/9/2026 Yanni & Associates Investment Advisors LLC34,784$1.56M1.4%+2.1%0.067%
7/9/2026 TL Private Wealth579,910$25.97M9.5%+7.7%1.124%
7/9/2026 Flaharty Asset Management LLC64,936$2.91M4.2%-91.9%0.126%
7/8/2026 Colorado Capital Management Inc.86,128$3.85M1.3%+3.6%0.167%
7/8/2026 TrueWealth Advisors LLC23,777$1.06M0.2%-8.0%0.046%
7/8/2026 Puff Wealth Management LLC18,515$829K0.8%N/A0.036%
7/8/2026 RVW Wealth LLC7,595$340K0.0%-12.4%0.015%
7/7/2026 Quad Cities Investment Group LLC31,321$1.40M0.5%-1.1%0.061%
7/7/2026 Balefire LLC11,574$518K0.1%+13.7%0.022%
7/7/2026 Dynamic Advisor Solutions LLC43,637$1.95M0.1%+35.5%0.085%
7/7/2026 CoreCap Advisors LLC142,146$6.36M0.2%+16,467.1%0.276%
7/2/2026 CX Institutional892$40K0.0%-31.9%0.002%
7/1/2026 PVG Asset Management Corp5,045$226K0.1%-7.8%0.010%
7/1/2026 Roxbury Financial LLC2,554$114K0.1%+46.0%0.005%
6/18/2026 Western Wealth Management LLC92,692$4.15M0.2%+370.3%0.184%
6/16/2026 PVG Asset Management Corp5,470$246K0.2%-9.3%0.011%
6/8/2026 Pine Valley Investments Ltd Liability Co10,649$477K0.0%-11.3%0.021%
6/3/2026 NewEdge Advisors LLC254,981$11.42M0.0%-17.1%0.505%
6/1/2026 Concorde Asset Management LLC73,167$3.28M1.6%N/A0.145%
5/28/2026 Cozad Asset Management Inc.11,458$513K0.0%-4.3%0.023%
Your $29.97 book is free today (Ad)

Why Some Traders Skip Stocks Entirely You don't need a big account to trade options. In fact, options can give you up to 12 times the leverage of stocks — with a fraction of the capital tied up. This free guide lays it all out in plain English — from A to Z, with step-by-step examples you can follow in your own account.tc pixel

Normally $29.97. Today it's free. Grab your copy now.
5/20/2026 Arete Wealth Advisors LLC44,621$2M0.1%+0.8%0.088%
5/19/2026 Western Wealth Management LLC92,692$4.15M0.2%+370.3%0.184%
5/19/2026 NewEdge Advisors LLC103,698$4.65M0.1%-66.3%0.206%
5/19/2026 Bank of America Corp DE1,465,667$65.66M0.0%-15.9%2.905%
5/19/2026 Arkadios Wealth Advisors43,058$1.93M0.0%N/A0.085%
5/19/2026 Arete Wealth Advisors LLC44,621$2M0.1%+0.8%0.088%
5/18/2026 Royal Bank of Canada1,432,868$64.19M0.0%-7.6%2.840%
5/15/2026 Gateway Wealth Partners LLC10,108$453K0.0%N/A0.020%
5/15/2026 Waverly Advisors LLC47,921$2.15M0.0%+4.7%0.095%
5/14/2026 Hilltop Holdings Inc.8,725$391K0.0%-66.0%0.017%
5/14/2026 American Financial Advisors LLC11,487$515K0.1%-12.4%0.023%
5/13/2026 Cetera Investment Advisers436,318$19.55M0.0%-0.2%0.865%
5/13/2026 NewEdge Wealth LLC18,133$812K0.0%-19.8%0.036%
5/13/2026 First Trust Advisors LP1,274,813$57.10M0.0%+15.7%2.527%
5/12/2026 CacheTech Inc.153,298$6.87M1.3%-5.2%0.304%
5/7/2026 Legacy Wealth Managment LLC ID35,060$1.57M0.8%+10.9%0.069%
5/7/2026 Balefire LLC10,181$456K0.1%+17.2%0.020%
5/6/2026 Annis Gardner Whiting Capital Advisors LLC3,513$157K0.0%+17.9%0.007%
5/6/2026 Assetmark Inc.46,218$2.07M0.0%+121.5%0.092%
5/6/2026 Oder Investment Management LLC76,964$3.45M2.6%+0.8%0.153%
5/6/2026 Independent Financial Group LLC9,192$412K0.0%N/A0.018%
5/6/2026 Helium Advisors LLC15,603$699K0.7%+1.6%0.031%
5/5/2026 Wealthfront Advisers LLC19,040$853K0.0%+55.9%0.038%
5/5/2026 D.A. Davidson & CO.57,348$2.57M0.0%-10.2%0.114%
5/5/2026 Blackhawk Capital Partners LLC46,978$2.11M0.8%-71.2%0.093%
5/5/2026 Geneos Wealth Management Inc.30,172$1.35M0.0%-9.0%0.060%
5/5/2026 Sanctuary Advisors LLC76,364$3.42M0.0%-2.0%0.151%
5/5/2026 Sigma Planning Corp8,920$400K0.0%-25.5%0.018%
5/4/2026 Empirical Financial Services LLC d.b.a. Empirical Wealth Management195,571$8.76M0.2%+9.6%0.388%
5/4/2026 HBW Advisory Services LLC33,524$1.50M0.2%+8.1%0.066%
5/4/2026 Chicago Partners Investment Group LLC140,031$6.31M0.1%+1.2%0.278%
5/2/2026 International Assets Investment Management LLC5,422$243K0.0%-22.2%0.011%
5/2/2026 Valmark Advisers Inc.59,664$2.67M0.0%+21.6%0.118%
5/1/2026 Welch & Forbes LLC631,873$28.31M0.4%-9.3%1.252%
5/1/2026 Fifth Third Bancorp40,939$1.83M0.0%N/A0.081%
5/1/2026 Simplicity Wealth LLC9,651$432K0.0%N/A0.019%
5/1/2026 Petix & Botte Co135,926$6.09M1.4%+9.5%0.269%
4/30/2026 Kestra Advisory Services LLC103,378$4.63M0.0%-12.2%0.205%
4/30/2026 Stenger Family Office LLC44,750$2.01M0.4%N/A0.089%
4/29/2026 Integrated Advisors Network LLC41,127$1.84M0.1%-31.8%0.082%
4/28/2026 Berger Financial Group Inc4,647$208K0.0%-6.3%0.009%
4/28/2026 Raleigh Capital Management Inc.660$30K0.0%N/A0.001%
4/28/2026 NBT Bank N A NY5,164$231K0.0%+11,126.1%0.010%
4/28/2026 Koshinski Asset Management Inc.22,168$993K0.1%+12.8%0.044%
4/27/2026 Private Advisor Group LLC270,060$12.10M0.1%-0.4%0.537%
4/27/2026 Sound Income Strategies LLC1,026$46K0.0%+140.3%0.002%
4/24/2026 True Blue Financial LLC58,711$2.63M2.1%+6.1%0.117%
4/24/2026Tcfg Wealth Management LLC22,322$1M0.4%-2.6%0.044%
4/24/2026 Wagner Wealth Management LLC38,808$1.74M0.4%-7.2%0.077%
4/24/2026 Columbia Advisory Partners LLC6,189$277K0.2%-6.0%0.012%
Ready to give options a try? Your first trade (Ticker included) -INSIDE (Ad)

Tired of trying tactic after tactic when it comes to options trades... only to be met with market noise and stinging losses? Dave Aquino is giving away the exact 11-hour options strategy he uses in volatile markets. You get the plain English blueprint behind the strategy and the very same "rinse and repeat" ticker he's traded nearly 900 times with a 95.3% success rate. It's so simple to understand, you could trade it tomorrow.tc pixel

4/24/2026 Impact Partnership Wealth LLC48,295$2.16M0.3%+31.9%0.096%
4/23/2026 Mayflower Financial Advisors LLC11,376$510K0.1%-34.6%0.023%
4/23/2026 Capital Investment Counsel LLC443,345$19.86M2.7%-1.1%0.881%
4/23/2026 Flagstar Advisors Inc.66,935$3.00M1.1%+1.9%0.133%
4/23/2026 Asset Allocation Strategies LLC28,969$1.30M0.2%-7.2%0.058%
4/23/2026 Apollon Wealth Management LLC9,500$426K0.0%-50.7%0.019%
4/22/2026 First Financial Group Corp54,746$2.45M2.0%+1.3%0.109%
4/22/2026 Ifrah Financial Services Inc.49,549$2.22M0.6%-3.6%0.099%
4/22/2026 Janney Montgomery Scott LLC33,253$1.49M0.0%+21.8%0.066%
4/22/2026 Realta Investment Advisors7,120$319K0.1%+711,900.0%0.014%


FTSL Institutional Ownership - Frequently Asked Questions

During the previous two years, 383 institutional investors and hedge funds held shares of First Trust Senior Loan ETF. The most heavily invested institutionals were Morgan Stanley ($193.93M), LPL Financial LLC ($91.33M), Wells Fargo & Company MN ($83.95M), Raymond James Financial Inc. ($71.66M), Bank of America Corp DE ($65.66M), Royal Bank of Canada ($64.19M), and One Capital Management LLC ($57.95M).Learn more on First Trust Senior Loan ETF's institutional investors.

Of the 321 institutional investors that purchased First Trust Senior Loan ETF's stock in the last 24 months, the following investors and hedge funds have bought the highest volume of shares: New England Private Wealth Advisors LLC ($1.78M), Raymond James Financial Inc. ($1.60M), Northwestern Mutual Wealth Management Co. ($887.62K), Virtue Capital Management LLC ($754.57K), Focus Partners Wealth ($650.18K), Concurrent Investment Advisors LLC ($631.16K), and Jane Street Group LLC ($611.77K).

Institutional investors have bought a total of 8,735,521 shares in the last 24 months. This purchase volume represents approximately $399.25M in transactions.

Of the 150 institutional investors that sold First Trust Senior Loan ETF's stock in the last 24 months, the following investors and hedge funds have sold the highest volume of shares: Flaharty Asset Management LLC ($735.14K), Virtue Capital Management LLC ($582.19K), Morgan Stanley ($335.48K), Bank of America Corp DE ($330.90K), Renaissance Technologies LLC ($273.33K), NewEdge Advisors LLC ($256.60K), and Integrated Wealth Concepts LLC ($218.59K).

Institutional investors have sold a total of 5,011,851 shares in the last 24 months. This volume of shares sold represents approximately $228.03M in transactions.



Institutional ownership data for NASDAQ:FTSL is compiled from quarterly 13F filings submitted to the U.S. Securities and Exchange Commission (SEC), with the most recent received on 9/2/2026. New 13F filings are added each quarter as they're published.
From Our Partners